Terminal Aerodrome Forecast
Issued by NWS

Home | Current Version | Previous Version | Text Only | Print | Product List | Glossary On
Versions: 1 2 3 4 5 6 7 8 9 10 11 12 13 14 15 16 17 18
000
FTUS46 KMTR 222300 RRA
TAFMRY
TAF
KMRY 222354Z 2300/2324 VRB04KT P6SM FEW020
     FM230400 12003KT P6SM OVC010
     FM230800 14005KT 4SM BR OVC006
     FM231600 14003KT P6SM BKN015
     FM231800 29006KT P6SM FEW025=

USA.gov is the U.S. government's official web portal to all federal, state and local government web resources and services.